Goose Prairie, Washington
Current Conditions -  °F | °C
As of 5:53 PM on Saturday 20 Dec 2014 (Local Time) from KELN Reporting Station
Light Rain Light Rain  
Wind Chill: 41°   Ceiling: 1400
Heat Index: 41°   Visibility: 3mi
Dew Point: 38°   Wind: 0mph
Humidity: 89%   Direction: NA
Pressure: 29.55"   Gusts: NA
Location:  46.89°N, 121.27°W
Report Text: KELN 210153Z AUTO 00000KT 3SM -RA BR OVC014 05/03 A2955 RMK AO2 SLP016 P0003 T00500033
Loading
Personal Weather Stations






























Interactive Weather Map New forecast layout! Learn more

10-Day Weather Forecast

Advertisements
Track Severe Weather on mobile